createdAt,value
2017-06-19T00:01:43.843Z,88.4
2017-06-19T00:02:43.077Z,88.2
2017-06-19T00:03:42.701Z,88.5
2017-06-19T00:04:41.814Z,88.3
2017-06-19T00:05:41.047Z,87.9
2017-06-19T00:06:40.113Z,87.8
2017-06-19T00:07:39.852Z,88.1
2017-06-19T00:08:39.077Z,87.8
2017-06-19T00:09:38.199Z,87.8
2017-06-19T00:10:37.435Z,89.4
2017-06-19T00:11:36.663Z,89.2
2017-06-19T00:12:36.276Z,89.3
2017-06-19T00:13:35.505Z,89.1
2017-06-19T00:14:34.616Z,88.8
2017-06-19T00:15:33.852Z,87.9
2017-06-19T00:16:33.080Z,88.8
2017-06-19T00:17:32.820Z,88.4
2017-06-19T00:18:32.065Z,88.4
2017-06-19T00:19:31.299Z,88.1
2017-06-19T00:20:30.295Z,87.9
2017-06-19T00:21:29.903Z,88.7
2017-06-19T00:22:29.136Z,88.4
2017-06-19T00:23:28.362Z,88.6
2017-06-19T00:24:27.550Z,88.1
2017-06-19T00:25:26.686Z,89.1
2017-06-19T00:26:26.417Z,87.7
2017-06-19T00:27:25.657Z,87.5
2017-06-19T00:28:24.956Z,87.1
2017-06-19T00:28:55.506Z,87.1
2017-06-19T00:30:23.426Z,87.1
2017-06-19T00:31:22.537Z,87.2
2017-06-19T00:32:22.159Z,87
2017-06-19T00:33:21.390Z,87.2
2017-06-19T00:34:20.504Z,87.6
2017-06-19T00:35:20.123Z,87.4
2017-06-19T00:37:18.246Z,87.7
2017-06-19T00:38:17.981Z,87.5
2017-06-19T00:39:16.854Z,88.2
2017-06-19T00:40:16.347Z,87.7
2017-06-19T00:41:15.598Z,88.2
2017-06-19T00:42:14.818Z,89
2017-06-19T00:43:14.063Z,87.8
2017-06-19T00:44:13.448Z,87.4
2017-06-19T00:45:12.678Z,88.1
2017-06-19T00:46:12.304Z,88.3
2017-06-19T00:47:11.540Z,87.9
2017-06-19T00:48:10.538Z,87.9
2017-06-19T00:49:09.762Z,88.3
2017-06-19T00:50:09.388Z,87.7
2017-06-19T00:51:08.385Z,87.4
2017-06-19T00:52:07.612Z,87.5
2017-06-19T00:53:07.345Z,88.3
2017-06-19T00:54:06.470Z,87.8
2017-06-19T00:55:05.699Z,87.4
2017-06-19T00:56:04.817Z,87.1
2017-06-19T00:57:04.329Z,86.1
2017-06-19T00:58:03.557Z,85.9
2017-06-19T00:59:02.666Z,85.4
2017-06-19T01:00:02.405Z,85.1
2017-06-19T01:01:01.291Z,85
2017-06-19T01:02:00.531Z,85
2017-06-19T01:03:00.140Z,84.9
2017-06-19T01:03:59.374Z,85.5
2017-06-19T01:04:58.599Z,85.5
2017-06-19T01:05:57.828Z,85.2
2017-06-19T01:06:57.066Z,85.1
2017-06-19T01:07:56.730Z,85
2017-06-19T01:08:55.961Z,84.9
2017-06-19T01:09:55.192Z,85
2017-06-19T01:10:54.421Z,85
2017-06-19T01:11:53.646Z,85
2017-06-19T01:12:52.873Z,84.9
2017-06-19T01:13:52.482Z,84.7
2017-06-19T01:14:51.719Z,85
2017-06-19T01:15:50.955Z,84.8
2017-06-19T01:16:50.184Z,84.6
2017-06-19T01:17:49.416Z,84.4
2017-06-19T01:18:48.645Z,84.3
2017-06-19T01:19:47.872Z,84.1
2017-06-19T01:20:47.192Z,84
2017-06-19T01:21:46.439Z,84.4
2017-06-19T01:22:46.054Z,84.2
2017-06-19T01:24:44.666Z,84.4
2017-06-19T01:25:43.782Z,84.4
2017-06-19T01:26:42.894Z,84.2
2017-06-19T01:27:42.121Z,84.3
2017-06-19T01:28:41.750Z,84.3
2017-06-19T01:29:41.152Z,84.6
2017-06-19T01:30:40.391Z,84.9
2017-06-19T01:31:39.622Z,85
2017-06-19T01:32:38.861Z,85.2
2017-06-19T01:33:38.089Z,85.3
2017-06-19T01:34:37.199Z,85.3
2017-06-19T01:35:36.825Z,85.7
2017-06-19T01:36:36.056Z,85.9
2017-06-19T01:37:35.291Z,85.9
2017-06-19T01:38:34.399Z,86
2017-06-19T01:39:33.625Z,86.1
2017-06-19T01:40:33.238Z,86.1
2017-06-19T01:41:32.467Z,86
2017-06-19T01:42:31.772Z,86.2
2017-06-19T01:43:31.005Z,86.3
2017-06-19T01:44:30.314Z,86
2017-06-19T01:45:29.545Z,85.8
2017-06-19T01:46:28.802Z,86.1
2017-06-19T01:47:28.040Z,85.9
2017-06-19T01:48:27.270Z,86
2017-06-19T01:49:26.893Z,86.1
2017-06-19T01:50:26.121Z,85.9
2017-06-19T01:51:25.448Z,85.7
2017-06-19T01:52:24.435Z,85.6
2017-06-19T01:53:24.077Z,85.6
2017-06-19T01:54:23.310Z,85.5
2017-06-19T01:55:22.546Z,85.5
2017-06-19T01:55:52.974Z,85.5
2017-06-19T01:58:20.283Z,85.3
2017-06-19T01:59:19.512Z,85.4
2017-06-19T02:00:19.241Z,85.5
2017-06-19T02:01:18.474Z,85.5
2017-06-19T02:02:17.707Z,85.7
2017-06-19T02:03:16.945Z,85.5
2017-06-19T02:04:15.934Z,86
2017-06-19T02:05:15.551Z,85.9
2017-06-19T02:06:14.786Z,85.6
2017-06-19T02:07:14.009Z,85.8
2017-06-19T02:08:13.237Z,85.7
2017-06-19T02:09:12.858Z,85.8
2017-06-19T02:10:11.972Z,85.7
2017-06-19T02:11:11.124Z,86
2017-06-19T02:12:10.353Z,85.8
2017-06-19T02:13:09.968Z,86.1
2017-06-19T02:14:08.959Z,85.8
2017-06-19T02:15:08.194Z,86.1
2017-06-19T02:16:07.425Z,85.8
2017-06-19T02:17:07.161Z,85.9
2017-06-19T02:18:06.279Z,85.8
2017-06-19T02:19:05.507Z,86
2017-06-19T02:20:04.618Z,85.9
2017-06-19T02:21:04.237Z,86.3
2017-06-19T02:23:02.748Z,86.3
2017-06-19T02:24:01.985Z,86.4
2017-06-19T02:25:01.213Z,86.5
2017-06-19T02:26:00.452Z,87
2017-06-19T02:26:59.568Z,87.1
2017-06-19T02:27:59.188Z,87.1
2017-06-19T02:28:58.419Z,87.3
2017-06-19T02:29:57.528Z,86.9
2017-06-19T02:30:57.142Z,86.9
2017-06-19T02:31:56.372Z,86.8
2017-06-19T02:32:55.606Z,86.7
2017-06-19T02:33:54.842Z,87.1
2017-06-19T02:34:54.035Z,87.2
2017-06-19T02:35:53.269Z,87
2017-06-19T02:36:52.497Z,87.5
2017-06-19T02:37:51.734Z,87.4
2017-06-19T02:38:50.966Z,87.9
2017-06-19T02:39:50.581Z,87.6
2017-06-19T02:40:49.813Z,87.8
2017-06-19T02:41:48.929Z,87.5
2017-06-19T02:43:47.558Z,88
2017-06-19T02:44:46.792Z,87.7
2017-06-19T02:45:46.027Z,87.7
2017-06-19T02:46:45.259Z,87.5
2017-06-19T02:47:44.489Z,87.5
2017-06-19T02:48:43.980Z,87.8
2017-06-19T02:49:43.783Z,87.8
2017-06-19T02:50:42.600Z,87.8
2017-06-19T02:51:41.716Z,87.9
2017-06-19T02:52:40.948Z,87.9
2017-06-19T02:53:40.129Z,88.2
2017-06-19T02:54:39.751Z,88.2
2017-06-19T02:55:38.983Z,88.2
2017-06-19T02:56:38.218Z,87.9
2017-06-19T02:57:37.449Z,87.8
2017-06-19T02:58:36.682Z,88
2017-06-19T02:59:35.906Z,88.5
2017-06-19T03:00:35.142Z,88.6
2017-06-19T03:01:34.764Z,88.3
2017-06-19T03:02:33.770Z,88
2017-06-19T03:03:33.303Z,87.7
2017-06-19T03:04:32.535Z,87.9
2017-06-19T03:05:02.960Z,87.9
2017-06-19T03:05:33.501Z,87.8
2017-06-19T03:06:30.721Z,88.2
2017-06-19T03:08:29.352Z,88.9
2017-06-19T03:09:28.582Z,89.2
2017-06-19T03:10:27.768Z,89
2017-06-19T03:11:27.388Z,89
2017-06-19T03:12:26.638Z,89.1
2017-06-19T03:13:25.866Z,89.2
2017-06-19T03:14:25.099Z,89
2017-06-19T03:15:24.216Z,89.6
2017-06-19T03:16:23.716Z,89.3
2017-06-19T03:17:22.715Z,89.4
2017-06-19T03:18:22.330Z,89.4
2017-06-19T03:19:21.560Z,90
2017-06-19T03:20:20.670Z,89.4
2017-06-19T03:21:19.782Z,89.2
2017-06-19T03:22:19.521Z,89.3
2017-06-19T03:23:18.747Z,89.9
2017-06-19T03:24:17.979Z,89.9
2017-06-19T03:25:17.293Z,89.6
2017-06-19T03:26:16.403Z,89.4
2017-06-19T03:27:15.663Z,89.7
2017-06-19T03:28:14.896Z,90
2017-06-19T03:29:14.011Z,89.8
2017-06-19T03:30:13.248Z,89.3
2017-06-19T03:31:12.864Z,89.5
2017-06-19T03:32:11.988Z,89.8
2017-06-19T03:33:11.136Z,90.6
2017-06-19T03:34:10.369Z,90.4
2017-06-19T03:35:09.616Z,90.2
2017-06-19T03:36:09.233Z,90.1
2017-06-19T03:37:08.226Z,90.4
2017-06-19T03:38:07.725Z,90.6
2017-06-19T03:39:06.957Z,90.4
2017-06-19T03:40:06.193Z,90.5
2017-06-19T03:41:05.423Z,90.4
2017-06-19T03:42:04.651Z,90.6
2017-06-19T03:43:03.767Z,90.6
2017-06-19T03:45:02.266Z,90.7
2017-06-19T03:46:01.498Z,90.4
2017-06-19T03:47:01.240Z,90.9
2017-06-19T03:48:00.482Z,90.6
2017-06-19T03:48:59.709Z,90.5
2017-06-19T03:49:58.945Z,91.1
2017-06-19T03:50:58.173Z,90.7
2017-06-19T03:51:57.560Z,91.2
2017-06-19T03:52:56.668Z,91.7
2017-06-19T03:53:55.779Z,91.6
2017-06-19T03:54:55.014Z,91.6
2017-06-19T03:55:54.252Z,91.8
2017-06-19T03:56:53.872Z,91.6
2017-06-19T03:57:52.863Z,91.5
2017-06-19T03:58:51.859Z,91.6
2017-06-19T03:59:51.469Z,91.8
2017-06-19T04:00:50.700Z,91.5
2017-06-19T04:01:49.934Z,91.6
2017-06-19T04:02:49.168Z,91.9
2017-06-19T04:03:48.276Z,91.7
2017-06-19T04:04:47.987Z,91.5
2017-06-19T04:05:47.218Z,91.5
2017-06-19T04:06:46.446Z,91.3
2017-06-19T04:07:45.681Z,91.6
2017-06-19T04:08:44.913Z,91.3
2017-06-19T04:09:44.028Z,91.4
2017-06-19T04:10:43.253Z,91.4
2017-06-19T04:11:42.485Z,91.3
2017-06-19T04:12:41.715Z,91.3
2017-06-19T04:13:40.944Z,91
2017-06-19T04:14:40.169Z,90.7
2017-06-19T04:15:39.899Z,90.9
2017-06-19T04:16:39.127Z,90.9
2017-06-19T04:17:38.430Z,90.6
2017-06-19T04:18:37.425Z,90.6
2017-06-19T04:19:36.537Z,90.6
2017-06-19T04:20:35.731Z,90.6
2017-06-19T04:21:35.478Z,90.2
2017-06-19T04:22:34.290Z,90
2017-06-19T04:23:34.023Z,89.9
2017-06-19T04:24:33.250Z,89.7
2017-06-19T04:25:32.479Z,89.7
2017-06-19T04:26:31.591Z,89.6
2017-06-19T04:27:30.818Z,89.7
2017-06-19T04:28:30.070Z,89.8
2017-06-19T04:29:29.324Z,89.5
2017-06-19T04:30:28.444Z,89.6
2017-06-19T04:31:27.753Z,89.4
2017-06-19T04:32:26.986Z,89.5
2017-06-19T04:33:26.216Z,89.2
2017-06-19T04:34:25.842Z,89
2017-06-19T04:35:25.028Z,89.1
2017-06-19T04:37:23.411Z,89.2
2017-06-19T04:38:22.644Z,89.1
2017-06-19T04:39:22.180Z,89
2017-06-19T04:40:22.000Z,88.8
2017-06-19T04:41:20.612Z,88.8
2017-06-19T04:42:19.841Z,89
2017-06-19T04:44:18.236Z,88.5
2017-06-19T04:45:17.461Z,88.1
2017-06-19T04:46:16.693Z,88.3
2017-06-19T04:47:16.429Z,88.1
2017-06-19T04:48:16.248Z,88
2017-06-19T04:49:14.350Z,88.1
2017-06-19T04:50:14.085Z,88.1
2017-06-19T04:51:13.316Z,88.3
2017-06-19T04:53:11.934Z,87.8
2017-06-19T04:54:11.047Z,87.8
2017-06-19T04:55:10.276Z,87.7
2017-06-19T04:56:09.391Z,87.6
2017-06-19T04:57:09.122Z,87.6
2017-06-19T04:58:08.236Z,87.7
2017-06-19T04:59:07.514Z,88
2017-06-19T05:00:06.752Z,87.8
2017-06-19T05:01:05.864Z,87.3
2017-06-19T05:02:05.089Z,87.6
2017-06-19T05:03:04.594Z,87.6
2017-06-19T05:04:03.771Z,87.5
2017-06-19T05:05:02.889Z,87.5
2017-06-19T05:06:02.501Z,87.6
2017-06-19T05:07:01.812Z,87.8
2017-06-19T05:08:01.001Z,87.8
2017-06-19T05:09:00.001Z,88.1
2017-06-19T05:09:59.235Z,87.8
2017-06-19T05:10:58.465Z,87.6
2017-06-19T05:11:58.089Z,87.4
2017-06-19T05:12:57.323Z,87.2
2017-06-19T05:13:56.558Z,87.4
2017-06-19T05:14:55.861Z,87.5
2017-06-19T05:15:55.110Z,87.6
2017-06-19T05:16:54.098Z,87.2
2017-06-19T05:17:53.831Z,86.8
2017-06-19T05:18:52.948Z,86.8
2017-06-19T05:19:52.177Z,86.9
2017-06-19T05:20:51.404Z,86.8
2017-06-19T05:21:50.517Z,87.3
2017-06-19T05:22:49.746Z,87.2
2017-06-19T05:23:49.481Z,87.3
2017-06-19T05:24:48.716Z,87.2
2017-06-19T05:25:47.832Z,86.6
2017-06-19T05:26:47.226Z,86.1
2017-06-19T05:27:46.531Z,86.1
2017-06-19T05:28:45.648Z,85.8
2017-06-19T05:29:44.760Z,85.7
2017-06-19T05:30:43.870Z,85.6
2017-06-19T05:31:43.607Z,85.2
2017-06-19T05:32:42.600Z,85.1
2017-06-19T05:33:42.227Z,84.3
2017-06-19T05:34:41.335Z,84.2
2017-06-19T05:35:11.880Z,84.2
2017-06-19T05:36:39.558Z,84.4
2017-06-19T05:37:39.056Z,84.6
2017-06-19T05:38:38.437Z,85
2017-06-19T05:39:37.752Z,85
2017-06-19T05:40:36.987Z,84.3
2017-06-19T05:41:36.213Z,83.5
2017-06-19T05:42:35.448Z,83.6
2017-06-19T05:43:05.961Z,83.6
2017-06-19T05:43:36.269Z,83
2017-06-19T05:44:06.805Z,83
2017-06-19T05:45:33.477Z,82.9
2017-06-19T05:46:32.713Z,82.8
2017-06-19T05:47:31.955Z,82.7
2017-06-19T05:48:31.181Z,82.5
2017-06-19T05:49:30.301Z,82.4
2017-06-19T05:50:29.919Z,82.5
2017-06-19T05:51:28.986Z,82.7
2017-06-19T05:52:28.220Z,82.7
2017-06-19T05:53:27.858Z,82.8
2017-06-19T05:54:27.178Z,81.3
2017-06-19T05:55:26.173Z,81
2017-06-19T05:56:25.282Z,80.6
2017-06-19T05:57:24.807Z,80
2017-06-19T05:58:23.919Z,79.8
2017-06-19T05:59:23.146Z,80
2017-06-19T06:00:22.761Z,79.9
2017-06-19T06:01:21.995Z,79.9
2017-06-19T06:03:20.503Z,79.8
2017-06-19T06:04:19.727Z,79.8
2017-06-19T06:05:18.954Z,79.1
2017-06-19T06:06:18.187Z,79.1
2017-06-19T06:08:16.807Z,79.4
2017-06-19T06:09:16.548Z,79.8
2017-06-19T06:10:15.788Z,79.6
2017-06-19T06:11:14.968Z,79.7
2017-06-19T06:12:14.660Z,79.8
2017-06-19T06:13:13.469Z,79.5
2017-06-19T06:14:12.461Z,79.4
2017-06-19T06:15:12.080Z,78.5
2017-06-19T06:16:11.240Z,77.8
2017-06-19T06:17:10.627Z,77.5
2017-06-19T06:18:09.742Z,77.9
2017-06-19T06:19:09.475Z,78.4
2017-06-19T06:20:08.591Z,78.5
2017-06-19T06:21:07.828Z,78.1
2017-06-19T06:22:06.943Z,78.3
2017-06-19T06:23:06.684Z,78.1
2017-06-19T06:24:05.921Z,77.8
2017-06-19T06:25:05.155Z,77
2017-06-19T06:26:04.387Z,76.9
2017-06-19T06:27:03.501Z,77.2
2017-06-19T06:28:02.994Z,77.5
2017-06-19T06:29:02.226Z,75.5
2017-06-19T06:30:01.381Z,74.9
2017-06-19T06:31:00.998Z,73.9
2017-06-19T06:32:00.226Z,74.3
2017-06-19T06:32:59.455Z,74.6
2017-06-19T06:33:58.567Z,74.7
2017-06-19T06:34:58.374Z,74.9
2017-06-19T06:35:57.613Z,75.2
2017-06-19T06:36:56.842Z,74.8
2017-06-19T06:37:56.072Z,74.8
2017-06-19T06:38:55.062Z,74.4
2017-06-19T06:39:54.684Z,74.2
2017-06-19T06:40:53.797Z,73.8
2017-06-19T06:41:53.536Z,73.8
2017-06-19T06:42:52.765Z,73.9
2017-06-19T06:43:51.989Z,73.4
2017-06-19T06:44:51.219Z,72.1
2017-06-19T06:45:50.445Z,71.3
2017-06-19T06:46:49.941Z,72.3
2017-06-19T06:47:49.169Z,71.8
2017-06-19T06:48:48.400Z,71.1
2017-06-19T06:49:47.588Z,71.4
2017-06-19T06:50:47.210Z,71.6
2017-06-19T06:51:46.590Z,71.5
2017-06-19T06:52:45.704Z,71.5
2017-06-19T06:53:44.821Z,71
2017-06-19T06:54:44.564Z,71.2
2017-06-19T06:55:43.793Z,71.5
2017-06-19T06:56:43.291Z,71.6
2017-06-19T06:57:42.405Z,71.9
2017-06-19T06:58:41.525Z,71.4
2017-06-19T06:59:40.826Z,71.7
2017-06-19T07:00:40.559Z,71.8
2017-06-19T07:01:39.791Z,70.6
2017-06-19T07:02:39.031Z,69.9
2017-06-19T07:03:38.264Z,70
2017-06-19T07:04:37.380Z,70.4
2017-06-19T07:05:37.111Z,71
2017-06-19T07:06:36.350Z,71.2
2017-06-19T07:07:35.580Z,70.8
2017-06-19T07:08:34.806Z,71.7
2017-06-19T07:09:34.111Z,71.9
2017-06-19T07:10:33.852Z,72.1
2017-06-19T07:11:33.098Z,72.2
2017-06-19T07:12:32.908Z,71.5
2017-06-19T07:13:31.512Z,71.3
2017-06-19T07:14:30.890Z,71.4
2017-06-19T07:15:30.278Z,71.5
2017-06-19T07:16:29.521Z,71.7
2017-06-19T07:17:29.304Z,71.7
2017-06-19T07:18:28.545Z,71.5
2017-06-19T07:19:27.656Z,71
2017-06-19T07:20:27.286Z,71.3
2017-06-19T07:21:26.594Z,71.5
2017-06-19T07:22:25.714Z,70.3
2017-06-19T07:23:25.200Z,68.5
2017-06-19T07:24:24.430Z,68.4
2017-06-19T07:26:23.054Z,68.7
2017-06-19T07:27:22.669Z,69.2
2017-06-19T07:28:21.926Z,68.8
2017-06-19T07:29:21.411Z,68.1
2017-06-19T07:30:20.526Z,67.3
2017-06-19T07:31:19.793Z,67.6
2017-06-19T07:32:18.927Z,67.5
2017-06-19T07:33:18.668Z,67.2
2017-06-19T07:34:17.899Z,66.7
2017-06-19T07:35:17.428Z,67
2017-06-19T07:36:16.662Z,67.7
2017-06-19T07:37:15.767Z,67.8
2017-06-19T07:38:15.501Z,67.5
2017-06-19T07:39:14.570Z,66.4
2017-06-19T07:40:13.797Z,66
2017-06-19T07:41:13.839Z,65.9
2017-06-19T07:42:12.988Z,65.5
2017-06-19T07:43:12.163Z,64
2017-06-19T07:44:11.277Z,64
2017-06-19T07:45:11.015Z,64.2
2017-06-19T07:46:10.128Z,65.1
2017-06-19T07:47:09.550Z,65.3
2017-06-19T07:48:08.784Z,65.5
2017-06-19T07:49:08.165Z,64.5
2017-06-19T07:50:07.478Z,64.1
2017-06-19T07:51:06.713Z,64.7
2017-06-19T07:51:37.138Z,64.7
2017-06-19T07:52:07.561Z,64.8
2017-06-19T07:52:37.992Z,64.8
2017-06-19T07:54:04.849Z,63.7
2017-06-19T07:55:04.349Z,63.5
2017-06-19T07:56:03.842Z,63.3
2017-06-19T07:57:02.983Z,63.3
2017-06-19T07:58:02.856Z,63.3
2017-06-19T07:59:02.098Z,63.8
2017-06-19T08:00:01.214Z,64.3
2017-06-19T08:01:00.454Z,64.6
2017-06-19T08:01:59.859Z,64
2017-06-19T08:02:59.363Z,63.6
2017-06-19T08:03:58.891Z,63.4
2017-06-19T08:04:58.010Z,64
2017-06-19T08:05:57.246Z,63.8
2017-06-19T08:06:56.748Z,64.6
2017-06-19T08:07:56.253Z,64
2017-06-19T08:08:55.384Z,64.1
2017-06-19T08:09:55.425Z,63.8
2017-06-19T08:10:54.159Z,63.9
2017-06-19T08:11:53.893Z,63.8
2017-06-19T08:12:53.126Z,64.3
2017-06-19T08:13:52.365Z,63.6
2017-06-19T08:14:22.911Z,63.6
2017-06-19T08:14:53.456Z,64
2017-06-19T08:15:23.947Z,64
2017-06-19T08:15:54.460Z,64.5
2017-06-19T08:16:50.717Z,64.4
2017-06-19T08:17:49.953Z,64.9
2017-06-19T08:18:49.187Z,64.5
2017-06-19T08:19:48.920Z,64.1
2017-06-19T08:20:48.449Z,64.5
2017-06-19T08:21:47.686Z,65
2017-06-19T08:22:46.925Z,65.3
2017-06-19T08:24:45.931Z,65.3
2017-06-19T08:25:45.042Z,64.8
2017-06-19T08:26:44.916Z,64.4
2017-06-19T08:27:44.040Z,64.6
2017-06-19T08:28:43.043Z,64.4
2017-06-19T08:29:43.127Z,64.8
2017-06-19T08:30:42.015Z,65.6
2017-06-19T08:31:41.263Z,65.6
2017-06-19T08:32:41.252Z,65.8
2017-06-19T08:33:39.868Z,63.5
2017-06-19T08:34:39.616Z,63.2
2017-06-19T08:35:38.748Z,63.3
2017-06-19T08:36:38.488Z,61.9
2017-06-19T08:37:37.722Z,61.3
2017-06-19T08:38:37.251Z,62.1
2017-06-19T08:39:36.495Z,62.8
2017-06-19T08:41:35.002Z,62.4
2017-06-19T08:42:34.741Z,61.7
2017-06-19T08:43:34.243Z,61.4
2017-06-19T08:44:33.609Z,61.2
2017-06-19T08:45:32.736Z,59.4
2017-06-19T08:47:31.895Z,58.1
2017-06-19T08:48:31.125Z,59.3
2017-06-19T08:49:30.744Z,58.7
2017-06-19T08:50:30.110Z,58.5
2017-06-19T08:51:29.233Z,58.4
2017-06-19T08:52:28.971Z,58.9
2017-06-19T08:53:28.090Z,58.3
2017-06-19T08:54:27.833Z,57.5
2017-06-19T08:55:27.074Z,57.4
2017-06-19T08:56:26.614Z,56.1
2017-06-19T08:57:25.615Z,56.9
2017-06-19T08:58:25.353Z,56.3
2017-06-19T08:59:24.588Z,54.7
2017-06-19T09:00:23.814Z,54.1
2017-06-19T09:02:23.085Z,54.5
2017-06-19T09:02:53.508Z,54.5
2017-06-19T09:04:21.929Z,53.1
2017-06-19T09:05:21.162Z,53.6
2017-06-19T09:06:20.282Z,54
2017-06-19T09:07:20.024Z,53.7
2017-06-19T09:08:19.473Z,53.7
2017-06-19T09:09:18.604Z,53.7
2017-06-19T09:10:18.113Z,53.6
2017-06-19T09:11:17.359Z,54.1
2017-06-19T09:12:16.944Z,54.9
2017-06-19T09:13:16.682Z,54.2
2017-06-19T09:14:16.099Z,53.6
2017-06-19T09:15:15.213Z,54.3
2017-06-19T09:16:14.872Z,54.1
2017-06-19T09:17:14.053Z,53.7
2017-06-19T09:18:13.790Z,53.3
2017-06-19T09:19:13.029Z,52
2017-06-19T09:20:12.835Z,51.6
2017-06-19T09:21:11.449Z,50.2
2017-06-19T09:22:11.184Z,51.8
2017-06-19T09:23:10.816Z,51.8
2017-06-19T09:24:09.942Z,52.5
2017-06-19T09:25:09.564Z,51.4
2017-06-19T09:26:09.053Z,50.8
2017-06-19T09:27:08.317Z,50.8
2017-06-19T09:28:07.962Z,51.3
2017-06-19T09:29:07.080Z,51.2
2017-06-19T09:30:06.777Z,51.5
2017-06-19T09:31:05.891Z,52.3
2017-06-19T09:32:05.873Z,51.9
2017-06-19T09:33:04.995Z,52.1
2017-06-19T09:34:04.624Z,52.2
2017-06-19T09:36:03.248Z,52
2017-06-19T09:37:02.484Z,51.9
2017-06-19T09:38:02.535Z,52.3
2017-06-19T09:40:01.158Z,52.8
2017-06-19T09:41:00.270Z,50.9
2017-06-19T09:42:00.002Z,50.6
2017-06-19T09:42:59.114Z,50.5
2017-06-19T09:43:59.100Z,51.1
2017-06-19T09:44:58.214Z,51.1
2017-06-19T09:47:56.618Z,52.2
2017-06-19T09:48:55.732Z,51.8
2017-06-19T09:49:55.723Z,52.5
2017-06-19T09:50:54.967Z,52.7
2017-06-19T09:51:54.200Z,51.6
2017-06-19T09:52:53.944Z,51.5
2017-06-19T09:53:53.327Z,51.4
2017-06-19T09:54:52.827Z,51.7
2017-06-19T09:55:52.075Z,51.8
2017-06-19T09:57:51.089Z,51.8
2017-06-19T09:58:50.328Z,52.7
2017-06-19T09:59:49.569Z,52.6
2017-06-19T10:00:49.304Z,52.2
2017-06-19T10:01:48.841Z,52.6
2017-06-19T10:02:48.070Z,53
2017-06-19T10:03:47.578Z,52.6
2017-06-19T10:04:46.954Z,52.1
2017-06-19T10:05:46.568Z,52.4
2017-06-19T10:06:46.185Z,51.8
2017-06-19T10:07:45.671Z,51.6
2017-06-19T10:08:44.671Z,52.2
2017-06-19T10:09:44.052Z,52.9
2017-06-19T10:10:43.866Z,52.8
2017-06-19T10:11:43.366Z,52.6
2017-06-19T10:13:42.243Z,54.4
2017-06-19T10:14:41.352Z,54.6
2017-06-19T10:15:40.974Z,53.9
2017-06-19T10:16:40.595Z,53.4
2017-06-19T10:17:39.711Z,53.3
2017-06-19T10:18:39.320Z,53.3
2017-06-19T10:19:39.302Z,52
2017-06-19T10:20:38.419Z,52.3
2017-06-19T10:21:37.650Z,51.5
2017-06-19T10:22:37.390Z,52.4
2017-06-19T10:23:36.625Z,52.3
2017-06-19T10:24:36.362Z,51.4
2017-06-19T10:25:35.847Z,51.2
2017-06-19T10:26:35.092Z,51.2
2017-06-19T10:27:34.826Z,51.9
2017-06-19T10:28:34.061Z,51.4
2017-06-19T10:29:33.297Z,51.4
2017-06-19T10:30:33.027Z,50.2
2017-06-19T10:31:32.508Z,50.4
2017-06-19T10:32:32.126Z,50.6
2017-06-19T10:33:31.355Z,51.3
2017-06-19T10:34:30.850Z,51.3
2017-06-19T10:35:30.234Z,51.4
2017-06-19T10:36:29.857Z,51.5
2017-06-19T10:37:29.730Z,52.2
2017-06-19T10:38:28.958Z,50.7
2017-06-19T10:39:28.183Z,50
2017-06-19T10:40:27.792Z,49.9
2017-06-19T10:41:26.907Z,50.4
2017-06-19T10:42:26.648Z,50.6
2017-06-19T10:44:26.077Z,51.3
2017-06-19T10:45:25.190Z,51.6
2017-06-19T10:46:24.704Z,52.3
2017-06-19T10:47:24.319Z,53.1
2017-06-19T10:48:23.429Z,52.2
2017-06-19T10:49:23.243Z,51
2017-06-19T10:50:22.775Z,50.7
2017-06-19T10:51:21.880Z,50.5
2017-06-19T10:52:21.620Z,50.4
2017-06-19T10:53:20.858Z,50.3
2017-06-19T10:54:20.468Z,49.3
2017-06-19T10:55:19.968Z,49.9
2017-06-19T10:56:19.602Z,51.5
2017-06-19T10:57:19.108Z,50.7
2017-06-19T10:58:18.353Z,49.5
2017-06-19T10:59:18.090Z,49.4
2017-06-19T11:00:17.588Z,49.3
2017-06-19T11:01:17.094Z,49.9
2017-06-19T11:02:16.902Z,49.9
2017-06-19T11:03:16.172Z,50.5
2017-06-19T11:04:15.401Z,50.1
2017-06-19T11:05:15.136Z,49.8
2017-06-19T11:05:45.677Z,49.8
2017-06-19T11:06:16.228Z,51.2
2017-06-19T11:07:14.213Z,49.6
2017-06-19T11:08:13.750Z,50.3
2017-06-19T11:09:12.982Z,51.2
2017-06-19T11:10:12.716Z,50.4
2017-06-19T11:12:11.335Z,48.9
2017-06-19T11:13:10.831Z,47.6
2017-06-19T11:14:10.881Z,48.9
2017-06-19T11:15:10.108Z,49.3
2017-06-19T11:16:09.614Z,49.8
2017-06-19T11:17:09.237Z,49.2
2017-06-19T11:18:08.615Z,49.5
2017-06-19T11:19:08.232Z,48.7
2017-06-19T11:20:07.717Z,48.4
2017-06-19T11:21:07.216Z,48.1
2017-06-19T11:22:06.837Z,47.4
2017-06-19T11:23:06.458Z,45.9
2017-06-19T11:24:05.574Z,46.8
2017-06-19T11:25:05.198Z,46.4
2017-06-19T11:26:05.244Z,46.7
2017-06-19T11:27:04.236Z,47.5
2017-06-19T11:28:03.872Z,47
2017-06-19T11:29:03.606Z,46.7
2017-06-19T11:30:02.866Z,47.6
2017-06-19T11:31:02.385Z,48.3
2017-06-19T11:32:02.410Z,46.6
2017-06-19T11:33:01.658Z,45.8
2017-06-19T11:34:00.773Z,45.6
2017-06-19T11:35:00.511Z,44
2017-06-19T11:36:00.238Z,46.3
2017-06-19T11:36:59.469Z,44.6
2017-06-19T11:37:59.217Z,45.2
2017-06-19T11:38:58.717Z,44.8
2017-06-19T11:40:57.607Z,43
2017-06-19T11:41:57.307Z,43.9
2017-06-19T11:42:56.926Z,43.9
2017-06-19T11:43:56.686Z,44.6
2017-06-19T11:44:55.813Z,43.8
2017-06-19T11:45:55.560Z,45.2
2017-06-19T11:46:55.180Z,44
2017-06-19T11:47:54.558Z,44.7
2017-06-19T11:48:54.050Z,45.2
2017-06-19T11:49:53.857Z,43.9
2017-06-19T11:50:53.093Z,43.5
2017-06-19T11:51:52.602Z,44
2017-06-19T11:52:52.686Z,45.1
2017-06-19T11:53:51.680Z,46.1
2017-06-19T11:54:51.567Z,45.3
2017-06-19T11:55:51.183Z,44.6
2017-06-19T11:56:50.806Z,44
2017-06-19T11:57:49.924Z,42.4
2017-06-19T11:58:49.656Z,42
2017-06-19T11:59:49.269Z,42.7
2017-06-19T12:00:48.908Z,42
2017-06-19T12:01:48.410Z,43.2
2017-06-19T12:02:48.141Z,45.1
2017-06-19T12:03:47.876Z,43.9
2017-06-19T12:04:47.108Z,44.2
2017-06-19T12:05:46.841Z,44.2
2017-06-19T12:06:46.575Z,44.8
2017-06-19T12:07:45.807Z,44.4
2017-06-19T12:08:45.704Z,42.7
2017-06-19T12:09:44.933Z,42.5
2017-06-19T12:10:44.668Z,42.2
2017-06-19T12:11:44.658Z,40.4
2017-06-19T12:12:43.768Z,40.9
2017-06-19T12:13:43.500Z,41
2017-06-19T12:14:42.998Z,41.6
2017-06-19T12:15:42.494Z,42.5
2017-06-19T12:16:42.119Z,43
2017-06-19T12:17:42.035Z,42.7
2017-06-19T12:18:41.265Z,41.6
2017-06-19T12:19:40.760Z,42.1
2017-06-19T12:20:40.498Z,42.7
2017-06-19T12:21:40.134Z,42
2017-06-19T12:22:39.758Z,41.5
2017-06-19T12:23:38.877Z,42
2017-06-19T12:24:38.619Z,42.8
2017-06-19T12:25:38.261Z,40.8
2017-06-19T12:26:38.150Z,43.2
2017-06-19T12:27:37.387Z,42.9
2017-06-19T12:28:37.300Z,40.7
2017-06-19T12:29:37.040Z,40
2017-06-19T12:30:36.159Z,39.6
2017-06-19T12:31:35.790Z,38.5
2017-06-19T12:32:35.409Z,39.2
2017-06-19T12:33:35.169Z,40.7
2017-06-19T12:34:35.197Z,38.9
2017-06-19T12:35:34.212Z,37.9
2017-06-19T12:36:33.832Z,38.1
2017-06-19T12:37:34.143Z,38.5
2017-06-19T12:38:33.375Z,39.2
2017-06-19T12:39:32.604Z,40.5
2017-06-19T12:40:32.353Z,39.8
2017-06-19T12:41:31.849Z,39
2017-06-19T12:42:31.584Z,39.1
2017-06-19T12:43:31.327Z,38.7
2017-06-19T12:44:30.589Z,37.4
2017-06-19T12:45:30.351Z,38.9
2017-06-19T12:46:29.977Z,36.8
2017-06-19T12:47:29.975Z,35.1
2017-06-19T12:48:29.600Z,37.7
2017-06-19T12:49:29.106Z,38.2
2017-06-19T12:50:28.846Z,38.3
2017-06-19T12:51:28.330Z,35.7
2017-06-19T12:52:27.641Z,35.9
2017-06-19T12:53:27.263Z,36.1
2017-06-19T12:54:26.996Z,36
2017-06-19T12:55:26.611Z,36.3
2017-06-19T12:56:26.107Z,37.5
2017-06-19T12:57:26.147Z,38.2
2017-06-19T12:58:25.713Z,38.7
2017-06-19T12:59:25.451Z,37.8
2017-06-19T13:00:24.562Z,35.6
2017-06-19T13:01:24.294Z,35.3
2017-06-19T13:02:24.161Z,34.4
2017-06-19T13:03:23.903Z,34.3
2017-06-19T13:04:23.516Z,36
2017-06-19T13:05:23.137Z,37.9
2017-06-19T13:06:22.873Z,39.1
2017-06-19T13:07:22.104Z,38.5
2017-06-19T13:08:21.972Z,39.1
2017-06-19T13:08:52.521Z,39.1
2017-06-19T13:10:20.833Z,36.4
2017-06-19T13:11:20.999Z,37.7
2017-06-19T13:12:20.386Z,37.7
2017-06-19T13:13:20.688Z,37.7
2017-06-19T13:14:19.914Z,37.3
2017-06-19T13:15:19.540Z,37.8
2017-06-19T13:16:18.775Z,35.5
2017-06-19T13:17:18.896Z,35.3
2017-06-19T13:18:18.397Z,37.6
2017-06-19T13:19:17.710Z,36.9
2017-06-19T13:20:17.459Z,38.2
2017-06-19T13:21:16.963Z,38.6
2017-06-19T13:22:16.855Z,36.8
2017-06-19T13:23:16.587Z,36.9
2017-06-19T13:24:17.084Z,36.6
2017-06-19T13:25:15.698Z,33.3
2017-06-19T13:26:15.441Z,33.8
2017-06-19T13:27:15.179Z,34
2017-06-19T13:28:14.919Z,34
2017-06-19T13:29:14.426Z,35.5
2017-06-19T13:30:14.239Z,34.7
2017-06-19T13:32:13.124Z,34
2017-06-19T13:33:13.150Z,33.7
2017-06-19T13:34:12.385Z,34.8
2017-06-19T13:35:12.523Z,34
2017-06-19T13:36:11.907Z,34.4
2017-06-19T13:37:11.642Z,33.7
2017-06-19T13:38:11.378Z,33.3